Time;durP1;ratioP1;P1;durP2;ratioP2;P2;SDS_P1;SDS_P2;PMS_P1;PMS_P2;Temp;Humidity;BMP_temperature;BMP_pressure;BME280_temperature;BME280_humidity;BME280_pressure;Samples;Min_cycle;Max_cycle;Signal;HPM_P1;HPM_P2
2022/05/21 00:01:39;;;;;;;18.80;8.45;;;;;;;11.39;85.41;101813.44;5049420;28;20517;-82
2022/05/21 00:04:05;;;;;;;19.38;7.43;;;;;;;11.38;85.64;101809.00;5042663;28;20037;-82
2022/05/21 00:06:30;;;;;;;19.08;7.22;;;;;;;11.37;85.26;101804.56;5061494;28;20403;-82
2022/05/21 00:08:55;;;;;;;20.33;7.05;;;;;;;11.39;85.08;101807.16;5072668;28;20056;-82
2022/05/21 00:11:20;;;;;;;19.88;6.90;;;;;;;11.40;85.13;101817.00;5073381;28;20399;-82
2022/05/21 00:13:47;;;;;;;21.38;7.40;;;;;;;11.38;84.79;101811.69;5059819;28;20035;-82
2022/05/21 00:16:12;;;;;;;20.30;7.10;;;;;;;11.37;85.01;101809.97;5063112;28;20150;-83
2022/05/21 00:18:37;;;;;;;18.98;7.07;;;;;;;11.36;85.21;101814.50;5080731;28;20049;-83
2022/05/21 00:21:04;;;;;;;18.52;6.80;;;;;;;11.36;85.07;101818.97;5094848;28;20024;-82
2022/05/21 00:23:32;;;;;;;20.27;7.20;;;;;;;11.35;84.79;101817.28;5068074;28;20025;-82
2022/05/21 00:26:03;;;;;;;19.70;6.72;;;;;;;11.36;85.06;101816.28;5055450;28;20452;-82
2022/05/21 00:28:29;;;;;;;18.30;6.35;;;;;;;11.34;85.30;101827.16;5053676;28;20389;-82
2022/05/21 00:30:56;;;;;;;19.27;6.70;;;;;;;11.32;85.20;101822.84;5052829;28;20025;-82
2022/05/21 00:33:22;;;;;;;18.35;6.30;;;;;;;11.28;85.23;101814.06;5057077;28;20043;-82
2022/05/21 00:35:49;;;;;;;16.90;5.82;;;;;;;11.25;85.20;101819.66;5072237;28;20115;-82
2022/05/21 00:38:14;;;;;;;22.10;7.32;;;;;;;11.27;85.35;101825.78;5056497;28;20029;-82
2022/05/21 00:40:40;;;;;;;21.98;6.13;;;;;;;11.29;85.47;101817.63;5072857;28;20042;-82
2022/05/21 00:43:07;;;;;;;18.00;5.80;;;;;;;11.29;85.55;101831.06;5072133;28;20020;-82
2022/05/21 00:45:32;;;;;;;18.05;5.68;;;;;;;11.33;85.60;101821.88;5059059;28;20032;-82
2022/05/21 00:47:58;;;;;;;16.65;4.95;;;;;;;11.35;85.51;101828.03;5071347;28;20189;-82
2022/05/21 00:50:28;;;;;;;18.52;5.47;;;;;;;11.35;85.41;101826.19;5057100;28;20383;-82
2022/05/21 00:52:54;;;;;;;20.70;6.03;;;;;;;11.37;85.48;101831.50;5057429;28;20058;-82
2022/05/21 00:55:27;;;;;;;16.13;5.35;;;;;;;11.41;85.82;101822.28;5053994;28;20025;-83
2022/05/21 01:00:44;;;;;;;18.70;5.85;;;;;;;11.49;85.42;101819.09;5074691;28;20066;-79
2022/05/21 01:03:12;;;;;;;17.00;5.25;;;;;;;11.49;84.89;101821.78;5071536;28;20032;-78
2022/05/21 01:05:38;;;;;;;13.23;4.53;;;;;;;11.49;85.50;101825.38;5072270;28;20131;-79
2022/05/21 01:08:04;;;;;;;17.05;4.80;;;;;;;11.51;85.19;101826.13;5068007;28;20057;-79
2022/05/21 01:10:35;;;;;;;15.35;4.30;;;;;;;11.53;85.06;101821.50;5076307;28;20514;-78
2022/05/21 01:13:04;;;;;;;15.85;4.65;;;;;;;11.53;84.98;101821.50;5086229;28;20032;-78
2022/05/21 01:15:33;;;;;;;12.02;4.25;;;;;;;11.56;85.56;101819.59;5056570;28;20119;-78
2022/05/21 01:17:59;;;;;;;13.43;4.10;;;;;;;11.58;84.93;101823.06;5057238;28;20024;-79
2022/05/21 01:20:36;;;;;;;15.32;4.57;;;;;;;11.60;84.78;101823.84;5093598;28;20020;-79
2022/05/21 01:23:01;;;;;;;16.27;4.35;;;;;;;11.61;84.36;101817.47;5076749;28;20078;-79
2022/05/21 01:25:29;;;;;;;15.98;4.45;;;;;;;11.63;84.98;101824.50;5072044;28;20025;-78
2022/05/21 01:27:54;;;;;;;14.10;4.40;;;;;;;11.66;84.72;101820.75;5073473;28;20039;-78
2022/05/21 01:30:26;;;;;;;15.80;3.92;;;;;;;11.63;84.65;101815.56;5073054;28;20021;-79
2022/05/21 01:32:52;;;;;;;15.00;4.72;;;;;;;11.63;84.80;101813.72;5061463;28;20017;-79
2022/05/21 01:35:18;;;;;;;18.08;4.38;;;;;;;11.64;84.76;101814.59;5071806;28;20039;-79
2022/05/21 01:37:46;;;;;;;14.75;4.43;;;;;;;11.67;84.46;101811.69;5073471;28;20461;-79
2022/05/21 01:40:12;;;;;;;15.95;4.40;;;;;;;11.68;84.42;101814.31;5064270;28;20092;-79
2022/05/21 01:42:37;;;;;;;14.40;4.07;;;;;;;11.69;84.76;101810.66;5053115;28;20134;-79
2022/05/21 01:45:04;;;;;;;16.38;4.00;;;;;;;11.70;85.15;101811.53;5055816;28;20507;-78
2022/05/21 01:47:31;;;;;;;16.20;4.57;;;;;;;11.69;84.90;101813.34;5052919;28;20515;-78
2022/05/21 01:49:56;;;;;;;17.85;4.43;;;;;;;11.70;84.58;101806.16;5079753;28;20078;-78
2022/05/21 01:52:22;;;;;;;19.13;4.75;;;;;;;11.70;84.76;101806.16;5071512;28;20452;-78
2022/05/21 01:54:47;;;;;;;19.45;4.80;;;;;;;11.71;84.36;101814.13;5069983;28;20028;-79
2022/05/21 01:57:12;;;;;;;13.13;4.65;;;;;;;11.73;84.69;101803.25;5072865;28;20107;-79
2022/05/21 01:59:38;;;;;;;17.80;4.97;;;;;;;11.74;84.76;101807.66;5070158;28;20021;-78
2022/05/21 02:02:03;;;;;;;17.13;4.47;;;;;;;11.78;85.00;101805.66;5053539;28;20032;-78
2022/05/21 02:04:28;;;;;;;14.98;4.72;;;;;;;11.78;85.08;101803.81;5051329;28;20127;-79
2022/05/21 02:06:54;;;;;;;18.67;4.93;;;;;;;11.80;84.73;101807.31;5056877;28;20035;-79
2022/05/21 02:09:19;;;;;;;19.50;5.20;;;;;;;11.80;84.92;101812.69;5066892;28;20368;-79
2022/05/21 02:11:45;;;;;;;14.23;4.05;;;;;;;11.82;84.61;101799.97;5069073;28;20985;-78
2022/05/21 02:14:11;;;;;;;16.48;4.50;;;;;;;11.84;84.81;101818.72;5072303;28;20081;-78
2022/05/21 02:16:36;;;;;;;18.05;4.93;;;;;;;11.84;84.85;101814.19;5068994;28;20098;-78
2022/05/21 02:19:03;;;;;;;17.90;4.35;;;;;;;11.85;84.84;101820.47;5081701;28;20486;-78
2022/05/21 02:21:30;;;;;;;18.23;4.40;;;;;;;11.91;84.69;101827.31;5066029;28;20117;-78
2022/05/21 02:23:56;;;;;;;10.85;3.92;;;;;;;11.88;84.70;101820.28;5072227;28;20024;-78
2022/05/21 02:26:21;;;;;;;14.77;4.47;;;;;;;11.85;84.96;101818.63;5072773;28;20059;-78
2022/05/21 02:28:47;;;;;;;11.13;4.05;;;;;;;11.87;84.74;101824.81;5070912;28;20058;-78
2022/05/21 02:31:12;;;;;;;20.52;4.80;;;;;;;11.88;84.86;101817.56;5061572;28;20442;-78
2022/05/21 02:33:37;;;;;;;19.23;3.75;;;;;;;11.86;84.05;101812.28;5052193;28;20056;-80
2022/05/21 02:36:03;;;;;;;17.05;5.07;;;;;;;11.84;84.60;101816.88;5050533;28;20059;-78
2022/05/21 02:41:15;;;;;;;15.23;3.90;;;;;;;11.81;84.98;101803.63;5059586;28;20529;-78
2022/05/21 02:43:43;;;;;;;21.00;5.13;;;;;;;11.81;84.93;101806.31;5055830;28;20039;-79
2022/05/21 02:46:09;;;;;;;18.05;4.93;;;;;;;11.82;84.94;101807.19;5071739;28;20032;-78
2022/05/21 02:48:35;;;;;;;16.90;4.28;;;;;;;11.82;85.28;101810.75;5078759;28;20020;-78
2022/05/21 02:51:00;;;;;;;17.13;4.50;;;;;;;11.84;84.78;101816.88;5080154;28;20059;-78
2022/05/21 02:53:25;;;;;;;15.85;4.53;;;;;;;11.85;85.06;101821.31;5070596;28;20132;-79
2022/05/21 02:55:53;;;;;;;16.40;4.75;;;;;;;11.85;85.19;101813.25;5049620;28;20582;-78
2022/05/21 02:58:18;;;;;;;15.00;4.65;;;;;;;11.86;84.94;101803.34;5051649;28;20132;-79
2022/05/21 03:00:45;;;;;;;21.63;4.85;;;;;;;11.84;84.78;101808.81;5054177;28;20443;-78
2022/05/21 03:03:11;;;;;;;14.75;4.22;;;;;;;11.86;85.14;101820.38;5050216;28;20017;-78
2022/05/21 03:05:36;;;;;;;15.65;4.65;;;;;;;11.84;85.27;101819.59;5051225;28;20091;-78
2022/05/21 03:10:52;;;;;;;19.83;5.75;;;;;;;11.82;85.02;101817.97;5054285;28;20036;-79
2022/05/21 03:13:17;;;;;;;17.90;5.32;;;;;;;11.81;85.29;101818.94;5083493;28;20024;-79
2022/05/21 03:15:42;;;;;;;14.55;4.55;;;;;;;11.82;85.40;101818.81;5051252;28;20074;-79
2022/05/21 03:18:11;;;;;;;19.20;5.07;;;;;;;11.82;85.25;101815.28;5063547;28;20048;-78
2022/05/21 03:20:36;;;;;;;18.90;4.57;;;;;;;11.83;84.93;101819.69;5078679;28;20021;-78
2022/05/21 03:23:02;;;;;;;23.42;5.55;;;;;;;11.84;85.04;101811.50;5033081;28;20379;-79
2022/05/21 03:25:27;;;;;;;20.27;6.32;;;;;;;11.85;85.57;101815.94;5049705;28;20479;-78
2022/05/21 03:27:53;;;;;;;17.88;5.28;;;;;;;11.85;84.97;101815.09;5056740;28;20024;-78
2022/05/21 03:30:22;;;;;;;20.60;6.00;;;;;;;11.84;85.68;101808.81;5068154;28;20100;-78
2022/05/21 03:32:47;;;;;;;25.67;6.40;;;;;;;11.86;85.44;101815.00;5070022;28;20017;-79
2022/05/21 03:35:16;;;;;;;17.27;5.70;;;;;;;11.85;85.28;101820.47;5070913;28;20074;-79
2022/05/21 03:37:43;;;;;;;17.60;5.65;;;;;;;11.85;85.55;101817.78;5070119;28;20039;-79
2022/05/21 03:40:11;;;;;;;19.08;6.28;;;;;;;11.85;85.31;101813.25;5069457;28;20025;-78
2022/05/21 03:42:37;;;;;;;17.85;4.93;;;;;;;11.85;85.61;101825.84;5055348;28;20048;-79
2022/05/21 03:45:03;;;;;;;17.70;4.97;;;;;;;11.86;85.58;101817.69;5069517;28;20035;-79
2022/05/21 03:47:28;;;;;;;20.65;6.38;;;;;;;11.87;85.85;101827.50;5066670;28;20456;-79
2022/05/21 03:49:53;;;;;;;18.75;5.93;;;;;;;11.86;85.67;101822.22;5086428;28;20060;-79
2022/05/21 03:52:20;;;;;;;19.80;4.93;;;;;;;11.86;85.57;101823.06;5054284;28;20396;-79
2022/05/21 03:54:45;;;;;;;17.33;5.25;;;;;;;11.85;85.50;101829.41;5051081;28;20094;-79
2022/05/21 03:57:11;;;;;;;20.40;5.80;;;;;;;11.86;85.50;101827.59;5049355;28;20025;-78
2022/05/21 03:59:37;;;;;;;20.27;5.05;;;;;;;11.86;85.56;101839.22;5050581;28;20055;-78
2022/05/21 04:02:04;;;;;;;20.50;6.25;;;;;;;11.85;85.59;101836.63;5058947;28;20067;-78
2022/05/21 04:04:29;;;;;;;14.35;4.85;;;;;;;11.85;85.91;101834.78;5070803;28;20031;-78
2022/05/21 04:06:55;;;;;;;19.77;5.43;;;;;;;11.85;85.95;101829.41;5070525;28;20044;-78
2022/05/21 04:09:20;;;;;;;20.33;5.28;;;;;;;11.88;85.82;101836.44;5069005;28;20047;-78
2022/05/21 04:11:45;;;;;;;18.80;5.40;;;;;;;11.86;86.21;101839.22;5060504;28;20033;-78
2022/05/21 04:14:13;;;;;;;19.90;5.68;;;;;;;11.87;85.91;101838.28;5082890;28;20052;-78
2022/05/21 04:16:38;;;;;;;17.05;5.40;;;;;;;11.89;85.68;101848.94;5050444;28;20017;-78
2022/05/21 04:19:04;;;;;;;21.30;6.32;;;;;;;11.91;85.56;101848.84;5072433;28;20160;-79
2022/05/21 04:21:29;;;;;;;20.42;5.97;;;;;;;11.90;85.80;101839.88;5065957;28;20035;-78
2022/05/21 04:23:55;;;;;;;17.38;6.30;;;;;;;11.89;86.26;101839.03;5070489;28;20025;-78
2022/05/21 04:26:21;;;;;;;18.40;5.68;;;;;;;11.91;85.59;101852.41;5070298;28;20110;-78
2022/05/21 04:28:46;;;;;;;22.25;6.47;;;;;;;11.92;85.73;101850.56;5070599;28;20071;-78
2022/05/21 04:31:12;;;;;;;20.55;6.95;;;;;;;11.92;85.41;101848.75;5066831;28;20025;-78
2022/05/21 04:33:37;;;;;;;20.10;6.20;;;;;;;11.94;85.65;101854.06;5070516;28;20096;-78
2022/05/21 04:36:18;;;;;;;21.20;6.32;;;;;;;11.94;86.11;101852.25;5070198;28;20348;-78
2022/05/21 04:38:43;;;;;;;22.35;6.35;;;;;;;11.94;85.96;101859.47;5070545;28;20032;-78
2022/05/21 04:41:08;;;;;;;20.33;6.57;;;;;;;11.94;86.03;101865.72;5066552;28;20475;-78
2022/05/21 04:43:34;;;;;;;26.02;8.00;;;;;;;11.95;86.21;101856.66;5049213;28;20442;-78
2022/05/21 04:45:59;;;;;;;25.30;7.13;;;;;;;11.96;85.95;101861.09;5050229;28;20025;-78
2022/05/21 04:48:24;;;;;;;21.13;7.50;;;;;;;11.96;86.30;101871.00;5061440;28;20020;-79
2022/05/21 04:50:50;;;;;;;19.65;6.93;;;;;;;11.95;85.46;101870.16;5076816;28;20040;-78
2022/05/21 04:53:15;;;;;;;21.10;6.43;;;;;;;11.96;85.64;101862.91;5049394;28;20112;-78
2022/05/21 04:55:40;;;;;;;20.13;6.57;;;;;;;11.96;85.88;101874.59;5060535;28;20032;-79
2022/05/21 04:58:06;;;;;;;22.83;6.70;;;;;;;11.95;85.97;101871.94;5052324;28;20394;-78
2022/05/21 05:00:32;;;;;;;21.77;7.00;;;;;;;11.94;85.54;101867.53;5053962;28;20020;-78
2022/05/21 05:02:57;;;;;;;22.13;7.20;;;;;;;11.95;86.13;101871.94;5051847;28;20048;-79
2022/05/21 05:05:23;;;;;;;23.20;7.43;;;;;;;11.96;86.14;101871.88;5052383;28;20383;-78
2022/05/21 05:07:48;;;;;;;22.90;8.38;;;;;;;12.01;86.30;101871.59;5052273;28;20075;-78
2022/05/21 05:10:14;;;;;;;20.38;7.35;;;;;;;12.02;86.35;101870.59;5055850;28;20036;-78
2022/05/21 05:12:40;;;;;;;22.20;9.27;;;;;;;12.05;85.74;101873.13;5054835;28;20028;-78
2022/05/21 05:15:05;;;;;;;25.13;9.80;;;;;;;12.06;86.55;101877.53;5053152;28;20033;-79
2022/05/21 05:17:31;;;;;;;21.98;8.50;;;;;;;12.10;86.48;101879.09;5052017;28;20045;-78
2022/05/21 05:19:56;;;;;;;29.90;9.52;;;;;;;12.12;86.24;101882.53;5105232;28;20067;-78
2022/05/21 05:22:22;;;;;;;23.63;8.93;;;;;;;12.13;86.24;101888.81;5073049;28;20024;-79
2022/05/21 05:24:48;;;;;;;24.58;8.77;;;;;;;12.15;85.87;101890.44;5069851;28;20394;-80
2022/05/21 05:27:13;;;;;;;27.50;9.48;;;;;;;12.17;86.15;101890.34;5072075;28;20024;-79
2022/05/21 05:29:38;;;;;;;22.17;8.77;;;;;;;12.20;86.20;101885.63;5071691;28;20111;-78
2022/05/21 05:32:05;;;;;;;28.77;10.55;;;;;;;12.22;86.02;101891.75;5056194;28;20381;-78
2022/05/21 05:34:30;;;;;;;27.33;9.77;;;;;;;12.22;86.26;101894.47;5065767;28;20040;-79
2022/05/21 05:36:55;;;;;;;26.83;10.48;;;;;;;12.26;86.48;101895.16;5071728;28;20020;-78
2022/05/21 05:39:21;;;;;;;26.38;9.85;;;;;;;12.29;86.64;101905.72;5072990;28;20398;-78
2022/05/21 05:41:47;;;;;;;25.95;8.50;;;;;;;12.33;86.45;101903.69;5060972;28;20123;-78
2022/05/21 05:44:12;;;;;;;24.05;9.20;;;;;;;12.38;86.46;101898.88;5061285;28;20111;-78
2022/05/21 05:46:37;;;;;;;29.15;9.30;;;;;;;12.41;86.08;101904.06;5072449;28;20106;-79
2022/05/21 05:49:03;;;;;;;26.45;10.40;;;;;;;12.41;85.53;101896.00;5082435;28;20498;-79
2022/05/21 05:51:28;;;;;;;25.15;9.75;;;;;;;12.43;86.02;101910.25;5071185;28;20021;-79
2022/05/21 05:53:54;;;;;;;29.50;10.40;;;;;;;12.46;85.51;101901.09;5059218;28;20072;-79
2022/05/21 05:56:19;;;;;;;27.35;9.45;;;;;;;12.44;85.44;101908.41;5071507;28;20025;-78
2022/05/21 06:01:29;;;;;;;32.83;11.05;;;;;;;12.44;85.34;101903.88;5071398;28;20133;-79
2022/05/21 06:03:54;;;;;;;25.20;9.73;;;;;;;12.46;85.87;101911.88;5065755;28;20061;-79
2022/05/21 06:06:20;;;;;;;29.85;10.75;;;;;;;12.46;85.32;101911.88;5051877;28;20029;-78
2022/05/21 06:08:46;;;;;;;26.45;10.75;;;;;;;12.48;85.35;101904.56;5084566;28;20055;-78
2022/05/21 06:11:12;;;;;;;25.90;11.35;;;;;;;12.51;85.18;101915.16;5073428;28;20037;-79
2022/05/21 06:13:38;;;;;;;29.90;12.02;;;;;;;12.56;85.51;101913.88;5057334;28;20540;-78
2022/05/21 06:16:04;;;;;;;36.45;12.73;;;;;;;12.62;85.65;101904.53;5070638;28;20115;-78
2022/05/21 06:18:29;;;;;;;31.73;11.77;;;;;;;12.67;85.43;101917.72;5078640;28;20073;-79
2022/05/21 06:20:58;;;;;;;30.48;12.65;;;;;;;12.67;84.83;101915.88;5071445;28;20033;-79
2022/05/21 06:23:24;;;;;;;26.13;11.30;;;;;;;12.69;85.07;101921.16;5052178;28;20021;-78
2022/05/21 06:25:49;;;;;;;28.50;12.40;;;;;;;12.69;84.58;101918.47;5052257;28;20028;-79
2022/05/21 06:28:14;;;;;;;29.40;11.60;;;;;;;12.65;84.47;101925.91;5052232;28;20033;-79
2022/05/21 06:30:41;;;;;;;28.52;12.27;;;;;;;12.70;85.30;101931.00;5051093;28;20025;-78
2022/05/21 06:33:28;;;;;;;32.20;13.38;;;;;;;12.78;85.36;101928.66;5079522;28;20025;-79
2022/05/21 06:36:06;;;;;;;26.40;10.75;;;;;;;12.91;84.89;101928.72;5066687;28;20028;-79
2022/05/21 06:38:32;;;;;;;26.90;11.50;;;;;;;13.02;85.43;101923.47;5070865;28;20055;-78
2022/05/21 06:40:57;;;;;;;29.67;13.18;;;;;;;13.10;83.76;101929.25;5066434;28;20520;-79
2022/05/21 06:43:24;;;;;;;27.27;12.05;;;;;;;13.21;83.89;101928.50;5060756;28;20016;-81
2022/05/21 06:45:49;;;;;;;33.40;14.10;;;;;;;13.28;83.55;101937.94;5053682;28;20043;-79
2022/05/21 06:48:14;;;;;;;30.85;13.35;;;;;;;13.33;83.07;101950.25;5064318;28;20032;-79
2022/05/21 06:50:40;;;;;;;27.77;12.25;;;;;;;13.38;83.88;101945.44;5090449;28;20024;-79
2022/05/21 06:53:05;;;;;;;27.08;11.73;;;;;;;13.41;81.92;101937.13;5091818;28;20094;-79
2022/05/21 06:55:31;;;;;;;27.38;12.02;;;;;;;13.44;82.07;101934.22;5088268;28;20084;-79
2022/05/21 06:57:56;;;;;;;29.35;12.77;;;;;;;13.42;81.78;101938.84;5066848;28;20036;-79
2022/05/21 07:00:23;;;;;;;30.88;13.52;;;;;;;13.43;82.33;101946.00;5059990;28;20028;-79
2022/05/21 07:02:50;;;;;;;28.13;12.93;;;;;;;13.45;82.69;101947.59;5071700;28;20020;-80
2022/05/21 07:08:13;;;;;;;30.73;14.70;;;;;;;13.48;82.30;101953.78;5051572;28;20071;-79
2022/05/21 07:10:39;;;;;;;33.10;14.95;;;;;;;13.48;81.67;101954.63;5051370;28;20037;-79
2022/05/21 07:13:04;;;;;;;29.55;14.40;;;;;;;13.52;82.38;101955.31;5051577;28;20431;-79
2022/05/21 07:15:29;;;;;;;29.55;14.00;;;;;;;13.52;81.91;101958.00;5067095;28;20031;-78
2022/05/21 07:18:00;;;;;;;35.58;14.00;;;;;;;13.56;82.23;101960.41;5056632;28;20547;-79
2022/05/21 07:20:25;;;;;;;30.13;13.63;;;;;;;13.62;82.05;101973.47;5091223;28;20073;-79
2022/05/21 07:22:51;;;;;;;25.95;14.25;;;;;;;13.64;81.29;101979.63;5091476;28;20020;-79
2022/05/21 07:25:20;;;;;;;30.83;13.80;;;;;;;13.68;82.34;101965.94;5075211;28;20491;-79
2022/05/21 07:27:46;;;;;;;29.05;13.02;;;;;;;13.70;80.69;101972.94;5069869;28;20476;-79
2022/05/21 07:30:12;;;;;;;29.95;14.02;;;;;;;13.74;80.57;101976.31;5053002;28;20039;-79
2022/05/21 07:32:37;;;;;;;29.40;13.57;;;;;;;13.77;80.54;101981.50;5063117;28;20044;-78
2022/05/21 07:35:07;;;;;;;35.88;18.20;;;;;;;13.84;80.59;101974.72;5062693;28;20034;-79
2022/05/21 07:37:33;;;;;;;93.43;54.33;;;;;;;13.89;81.63;101975.25;5061504;28;20025;-79
2022/05/21 07:39:59;;;;;;;31.80;17.83;;;;;;;13.88;79.01;101968.13;5050906;28;20376;-79
2022/05/21 07:42:24;;;;;;;34.35;20.10;;;;;;;13.89;79.40;101975.25;5049629;28;20191;-78
2022/05/21 07:44:50;;;;;;;30.17;16.30;;;;;;;13.92;79.93;101972.31;5075615;28;20028;-78
2022/05/21 07:47:15;;;;;;;31.70;16.67;;;;;;;14.02;80.71;101969.84;5053171;28;20025;-78
2022/05/21 07:49:41;;;;;;;37.33;13.75;;;;;;;14.13;80.10;101986.19;5081360;28;20028;-78
2022/05/21 07:52:07;;;;;;;31.15;13.23;;;;;;;14.25;80.00;101976.34;5056936;28;20111;-79
2022/05/21 07:54:32;;;;;;;30.40;12.77;;;;;;;14.37;79.49;101981.84;5053995;28;20059;-79
2022/05/21 07:56:59;;;;;;;28.30;13.50;;;;;;;14.41;77.24;101977.97;5066051;28;20020;-79
2022/05/21 07:59:24;;;;;;;31.13;10.63;;;;;;;14.45;76.47;101968.63;5051332;28;20395;-79
2022/05/21 08:01:49;;;;;;;31.95;11.82;;;;;;;14.50;77.34;101977.28;5062878;28;20107;-79
2022/05/21 08:04:17;;;;;;;26.80;10.77;;;;;;;14.51;76.56;101987.16;5070712;28;20360;-82
2022/05/21 08:06:43;;;;;;;27.98;10.20;;;;;;;14.46;75.97;101984.75;5051695;28;20033;-81
2022/05/21 08:09:08;;;;;;;28.83;11.30;;;;;;;14.49;75.88;101989.09;5049321;28;20045;-82
2022/05/21 08:11:34;;;;;;;25.33;11.32;;;;;;;14.52;75.72;101994.28;5066026;28;20021;-82
2022/05/21 08:14:00;;;;;;;27.73;12.45;;;;;;;14.62;77.36;102002.63;5054416;28;20085;-81
2022/05/21 08:16:26;;;;;;;23.58;12.18;;;;;;;14.74;76.53;101999.03;5054948;28;20032;-82
2022/05/21 08:18:51;;;;;;;24.15;11.35;;;;;;;14.90;77.61;102003.34;5059601;28;20906;-81
2022/05/21 08:21:17;;;;;;;25.67;12.48;;;;;;;14.97;76.42;101991.94;5061824;28;20017;-82
2022/05/21 08:29:10;;;;;;;33.85;12.52;;;;;;;15.18;75.04;102003.03;5067064;28;20602;-81
2022/05/21 08:31:35;;;;;;;25.63;12.15;;;;;;;15.19;72.99;101998.47;5069279;28;20032;-82
2022/05/21 08:34:01;;;;;;;24.45;11.25;;;;;;;15.25;73.34;102003.41;5062338;28;20107;-81
2022/05/21 08:36:27;;;;;;;27.25;12.00;;;;;;;15.32;73.89;102010.09;5068079;28;20483;-82
2022/05/21 08:38:52;;;;;;;28.83;12.38;;;;;;;15.34;73.26;102004.56;5055257;28;20072;-82
2022/05/21 08:41:30;;;;;;;27.52;11.98;;;;;;;15.36;74.13;102010.75;5071043;28;20059;-80
2022/05/21 08:43:55;;;;;;;29.08;10.88;;;;;;;15.29;71.20;102010.34;5068239;28;20032;-81
2022/05/21 08:46:38;;;;;;;31.30;11.93;;;;;;;15.31;74.19;102008.38;5068572;28;20043;-81
2022/05/21 08:49:12;;;;;;;25.23;12.00;;;;;;;15.27;72.14;102011.44;5072255;28;20756;-81
2022/05/21 08:51:47;;;;;;;27.42;13.43;;;;;;;15.25;73.51;102000.72;5069093;28;20028;-81
2022/05/21 08:54:24;;;;;;;28.38;11.90;;;;;;;15.21;73.15;102001.91;5069365;28;20029;-81
2022/05/21 08:56:51;;;;;;;26.55;10.90;;;;;;;15.18;73.63;101999.44;5073065;28;20016;-82
2022/05/21 08:59:19;;;;;;;25.08;11.48;;;;;;;15.23;73.44;102001.78;5072733;28;20046;-81
2022/05/21 09:01:44;;;;;;;30.58;13.65;;;;;;;15.31;73.24;101997.53;5072352;28;20127;-78
2022/05/21 09:04:12;;;;;;;25.92;10.35;;;;;;;15.34;70.90;101999.16;5060103;28;20020;-79
2022/05/21 09:07:00;;;;;;;27.88;11.45;;;;;;;15.49;72.11;101998.00;5065689;28;20123;-78
2022/05/21 09:10:03;;;;;;;27.50;11.10;;;;;;;15.50;72.03;101990.72;5063413;28;20502;-78
2022/05/21 09:12:45;;;;;;;27.35;11.00;;;;;;;15.59;72.58;102000.84;5063374;28;20036;-79
2022/05/21 09:16:54;;;;;;;24.42;10.68;;;;;;;15.66;69.75;101994.00;5066981;28;20442;-79
2022/05/21 09:18:06;;;;;;;25.00;11.38;;;;;;;15.77;69.61;101989.59;5068077;28;20427;-78
2022/05/21 09:20:55;;;;;;;22.20;9.80;;;;;;;15.88;69.97;101987.81;5067894;28;20020;-78
2022/05/21 09:23:20;;;;;;;24.08;9.15;;;;;;;15.92;66.54;101984.88;5058892;28;20040;-79
2022/05/21 09:26:03;;;;;;;23.20;9.23;;;;;;;15.93;68.69;101987.47;5073101;28;20562;-78
2022/05/21 09:28:28;;;;;;;23.50;9.98;;;;;;;15.92;67.82;101974.88;5074766;28;20321;-79
2022/05/21 09:30:57;;;;;;;22.33;8.75;;;;;;;15.87;67.73;101982.50;5061467;28;20138;-78
2022/05/21 09:33:26;;;;;;;26.05;8.55;;;;;;;15.81;66.27;101989.28;5065240;28;20065;-78
2022/05/21 09:35:57;;;;;;;21.67;7.75;;;;;;;15.84;67.47;101993.59;5066708;28;21353;-78
2022/05/21 09:38:30;;;;;;;27.25;7.38;;;;;;;15.97;67.90;101983.50;5065575;28;20029;-78
2022/05/21 09:41:22;;;;;;;22.02;7.82;;;;;;;16.08;68.39;101991.69;5071737;28;20036;-78
2022/05/21 09:46:44;;;;;;;25.10;7.57;;;;;;;15.97;67.66;101993.50;5068932;28;20262;-80
2022/05/21 09:49:31;;;;;;;22.90;8.38;;;;;;;15.85;68.61;101998.03;5066764;28;20032;-78
2022/05/21 09:52:08;;;;;;;19.83;6.93;;;;;;;15.71;66.31;101994.53;5065042;28;20040;-79
2022/05/21 09:54:36;;;;;;;22.85;7.22;;;;;;;15.76;67.40;102002.28;5067019;28;20128;-78
2022/05/21 09:57:01;;;;;;;20.95;7.70;;;;;;;15.82;67.22;102001.00;5070168;28;20459;-79
2022/05/21 09:59:32;;;;;;;23.60;8.00;;;;;;;15.89;68.06;101996.81;5068497;28;20040;-78
2022/05/21 10:02:01;;;;;;;23.75;8.07;;;;;;;15.97;67.66;101994.34;5069971;28;21013;-78
2022/05/21 10:04:48;;;;;;;25.05;8.05;;;;;;;16.07;68.27;102000.78;5070082;28;20093;-79
2022/05/21 10:13:14;;;;;;;24.15;9.32;;;;;;;16.11;67.80;102006.00;5064123;28;20062;-78
2022/05/21 10:15:50;;;;;;;25.23;10.68;;;;;;;16.22;69.91;102011.41;5069505;28;20036;-78
2022/05/21 10:18:41;;;;;;;24.58;9.80;;;;;;;16.26;68.63;102004.78;5064349;28;20556;-79
2022/05/21 10:21:28;;;;;;;24.05;10.07;;;;;;;16.22;67.70;102004.16;5064565;28;20493;-79
2022/05/21 10:24:02;;;;;;;23.15;10.95;;;;;;;16.15;68.21;101997.50;5067513;28;20112;-79
2022/05/21 10:26:46;;;;;;;24.67;11.68;;;;;;;16.06;67.35;102006.34;5067246;28;20411;-79
2022/05/21 10:29:29;;;;;;;25.50;11.30;;;;;;;16.06;68.54;102006.34;5061962;28;20024;-79
2022/05/21 10:32:38;;;;;;;25.30;12.57;;;;;;;16.17;69.85;102006.38;5065696;28;20032;-78
2022/05/21 10:35:23;;;;;;;24.65;11.40;;;;;;;16.33;70.06;101999.75;5062107;28;20055;-78
2022/05/21 10:38:08;;;;;;;24.25;9.38;;;;;;;16.43;67.62;102007.00;5067676;28;20505;-79
2022/05/21 10:40:45;;;;;;;19.85;8.07;;;;;;;16.50;66.20;102011.94;5051575;28;20032;-78
2022/05/21 10:43:46;;;;;;;22.15;8.48;;;;;;;16.56;66.35;102006.91;5063881;28;20035;-79
2022/05/21 10:46:35;;;;;;;18.98;7.40;;;;;;;16.63;67.29;102009.97;5049374;28;20530;-78
2022/05/21 10:49:34;;;;;;;26.45;10.18;;;;;;;16.66;66.36;102017.88;5073495;28;20062;-78
2022/05/21 10:52:15;;;;;;;22.67;8.35;;;;;;;16.66;65.70;102023.31;5064576;28;20033;-79
2022/05/21 10:55:09;;;;;;;21.75;6.70;;;;;;;16.66;63.52;102017.88;5052697;28;20033;-78
2022/05/21 10:58:17;;;;;;;20.77;7.05;;;;;;;16.75;65.32;102017.13;5052172;28;20371;-78
2022/05/21 11:01:21;;;;;;;19.40;7.10;;;;;;;16.77;64.29;102023.28;5052277;28;20439;-78
2022/05/21 11:04:20;;;;;;;18.80;5.75;;;;;;;16.73;62.67;102019.09;5057675;28;20044;-78
2022/05/21 11:07:09;;;;;;;17.65;5.55;;;;;;;16.83;64.30;102019.22;5070324;28;20063;-78
2022/05/21 11:10:01;;;;;;;20.45;5.88;;;;;;;16.90;63.89;102019.63;5068836;28;20421;-78
2022/05/21 11:12:50;;;;;;;20.50;6.88;;;;;;;16.90;62.77;102016.91;5069452;28;20055;-78
2022/05/21 11:15:39;;;;;;;22.52;6.57;;;;;;;16.97;64.59;102019.97;5071279;28;20025;-79
2022/05/21 11:18:17;;;;;;;20.42;6.47;;;;;;;17.02;63.28;102013.16;5067146;28;20028;-78
2022/05/21 11:21:00;;;;;;;21.90;6.22;;;;;;;17.02;62.72;102015.88;5061334;28;20036;-78
2022/05/21 11:23:54;;;;;;;18.25;6.00;;;;;;;17.08;62.26;102011.81;5060638;28;20037;-79
2022/05/21 11:26:33;;;;;;;21.25;5.50;;;;;;;17.15;60.70;102018.47;5071307;28;20063;-79
2022/05/21 11:29:19;;;;;;;18.20;4.82;;;;;;;17.11;59.82;102016.97;5068153;28;20092;-78
2022/05/21 11:37:36;;;;;;;21.02;6.30;;;;;;;17.37;62.99;102012.09;5071501;28;20046;-79
2022/05/21 11:40:02;;;;;;;17.80;5.80;;;;;;;17.45;59.79;102001.47;5071135;28;20046;-79
2022/05/21 11:42:33;;;;;;;15.73;5.25;;;;;;;17.47;59.24;102001.31;5071025;28;20020;-78
2022/05/21 11:45:08;;;;;;;16.20;5.35;;;;;;;17.55;62.17;102008.81;5052920;28;20480;-80
2022/05/21 11:47:43;;;;;;;17.70;5.50;;;;;;;17.66;62.06;102011.50;5071067;28;20058;-80
2022/05/21 11:50:26;;;;;;;16.65;5.43;;;;;;;17.71;60.97;102001.06;5090762;28;20028;-78
2022/05/21 11:52:56;;;;;;;20.42;5.85;;;;;;;17.71;58.92;102005.66;5089879;28;20027;-79
2022/05/21 11:55:24;;;;;;;16.80;5.28;;;;;;;17.82;60.92;101998.31;5089796;28;20059;-79
2022/05/21 11:58:01;;;;;;;22.00;6.90;;;;;;;17.87;59.12;101997.06;5071350;28;20178;-79
2022/05/21 12:00:26;;;;;;;20.10;6.15;;;;;;;17.84;59.37;102002.75;5069280;28;20028;-79